Latest Weather Observations for Ayr

IDQ60801

Issued at 10:02 pm EST Thursday 21 September 2017 (issued every 30 minutes, with the page automatically refreshed every 10 minutes)

About weather observations | Map of weather stations | Latest weather observations for QLD | Other Formats
Station Details ID: 033002 Name: AYR DPI RESEARCH STN Lat: -19.62 Lon: 147.38 Height: 17.0 m
Data from the previous 72 hours. | See also: Recent months at Ayr
Date/Time
EST
Temp
°C
App
Temp
°C
Dew
Point
°C
Rel
Hum
%
Delta-T
°C
Wind Press
QNH
hPa
Press
MSL
hPa
Rain since
9am
mm
Dir  Spd
km/h
Gust
km/h
Spd
kts
Gust
kts
21/10:00pm 19.2 21.1 16.6 85 1.6 NNW 2 6 1 3 - - 0.0
21/09:30pm 19.2 21.2 16.1 82 1.8 CALM 0 0 0 0 - - 0.0
21/09:00pm 19.9 22.1 16.5 81 2.0 CALM 0 0 0 0 - - 0.0
21/08:30pm 20.8 22.1 17.2 80 2.2 NNW 6 11 3 6 - - 0.0
21/08:00pm 21.2 22.5 17.2 78 2.5 NNW 6 9 3 5 - - 0.0
21/07:30pm 21.9 23.3 17.9 78 2.5 NNE 7 11 4 6 - - 0.0
21/07:00pm 22.4 24.0 17.8 75 2.9 NNE 6 9 3 5 - - 0.0
21/06:30pm 23.1 23.8 18.0 73 3.2 NNE 11 15 6 8 - - 0.0
21/06:00pm 23.8 23.9 17.5 68 3.9 NNE 13 20 7 11 - - 0.0
21/05:30pm 24.8 24.8 17.3 63 4.7 NNE 13 20 7 11 - - 0.0
21/05:00pm 26.1 25.3 17.2 58 5.6 NE 17 22 9 12 - - 0.0
21/04:30pm 26.5 25.8 16.4 53 6.2 NNE 15 26 8 14 - - 0.0
21/04:00pm 27.6 26.2 15.6 48 7.3 NNE 17 28 9 15 - - 0.0
21/03:30pm 28.1 26.5 15.1 45 7.9 NNE 17 30 9 16 - - 0.0
21/03:00pm 28.6 26.3 12.9 38 9.2 NE 17 26 9 14 - - 0.0
21/02:30pm 29.0 27.0 12.8 36 9.5 NNE 15 24 8 13 - - 0.0
21/02:00pm 28.7 26.6 11.3 34 10.0 NE 13 26 7 14 - - 0.0
21/01:30pm 29.1 27.3 12.1 35 9.9 NE 13 20 7 11 - - 0.0
21/01:00pm 28.5 27.7 14.0 41 8.7 NE 11 20 6 11 - - 0.0
21/12:30pm 28.3 26.5 13.4 40 8.8 ENE 15 20 8 11 - - 0.0
21/12:00pm 27.8 26.0 12.2 38 9.1 NE 13 24 7 13 - - 0.0
21/11:30am 28.2 26.7 14.1 42 8.4 NNE 15 30 8 16 - - 0.0
21/11:00am 28.2 27.5 15.5 46 7.8 NE 13 24 7 13 - - 0.0
21/10:30am 27.5 26.6 14.8 45 7.7 NE 13 24 7 13 - - 0.0
21/10:00am 26.1 26.4 16.1 54 6.1 NE 9 17 5 9 - - 0.0
21/09:30am 25.3 25.3 15.3 54 6.0 NE 9 13 5 7 - - 0.0
21/09:00am 24.8 26.3 17.5 64 4.6 E 6 13 3 7 - - 0.0
21/08:30am 23.4 25.2 18.3 73 3.2 SE 6 9 3 5 - - 0.0
21/08:00am 21.7 23.2 18.1 80 2.2 SE 7 9 4 5 - - 0.0
21/07:30am 20.0 21.5 18.0 88 1.2 SE 7 9 4 5 - - 0.0
21/07:00am 18.4 19.4 16.9 91 0.9 SSE 7 9 4 5 - - 0.0
21/06:30am 15.5 16.7 13.9 90 0.9 CALM 0 0 0 0 - - 0.0
21/06:00am 15.6 15.7 14.0 90 0.9 S 6 7 3 4 - - 0.0
21/05:30am 15.6 15.7 14.0 90 0.9 SSE 6 7 3 4 - - 0.0
21/05:00am 15.4 15.8 13.8 90 0.9 SSE 4 7 2 4 - - 0.0
21/04:30am 16.1 16.8 14.5 90 0.9 SSE 4 7 2 4 - - 0.0
21/04:00am 16.3 16.7 14.7 90 0.9 S 6 7 3 4 - - 0.0
21/03:30am 16.2 16.9 14.4 89 1.0 NNW 4 7 2 4 - - 0.0
21/03:00am 16.7 17.6 15.1 90 0.9 NNW 4 9 2 5 - - 0.0
21/02:30am 16.8 18.4 15.0 89 1.0 CALM 0 0 0 0 - - 0.0
21/02:00am 17.1 18.4 15.1 88 1.2 NNW 2 7 1 4 - - 0.0
21/01:30am 17.2 18.8 15.0 87 1.3 CALM 0 0 0 0 - - 0.0
21/01:00am 17.2 18.7 14.7 85 1.4 CALM 0 0 0 0 - - 0.0
21/12:30am 18.0 20.0 16.0 88 1.2 CALM 0 0 0 0 - - 0.0
21/12:00am 17.8 19.6 15.4 86 1.4 CALM 0 0 0 0 - - 0.0
 
Date/Time
EST
Temp
°C
App
Temp
°C
Dew
Point
°C
Rel
Hum
%
Delta-T
°C
Wind Press
QNH
hPa
Press
MSL
hPa
Rain since
9am
mm
Dir  Spd
km/h
Gust
km/h
Spd
kts
Gust
kts
20/11:30pm 18.6 20.7 16.2 86 1.4 CALM 0 0 0 0 - - 0.0
20/11:00pm 19.0 21.2 16.6 86 1.4 CALM 0 0 0 0 - - 0.0
20/10:30pm 19.3 21.7 16.9 86 1.5 CALM 0 0 0 0 - - 0.0
20/10:00pm 20.0 22.6 17.6 86 1.5 CALM 0 0 0 0 - - 0.0
20/09:30pm 19.8 22.2 17.0 84 1.7 CALM 0 4 0 2 - - 0.0
20/09:00pm 20.4 22.7 17.8 85 1.6 ENE 2 7 1 4 - - 0.0
20/08:30pm 20.8 23.5 17.8 83 1.9 CALM 0 0 0 0 - - 0.0
20/08:00pm 21.4 23.4 17.8 80 2.2 NNE 4 6 2 3 - - 0.0
20/07:30pm 22.2 24.0 18.4 79 2.4 NNE 6 9 3 5 - - 0.0
20/07:00pm 22.8 24.6 18.8 78 2.5 NE 7 11 4 6 - - 0.0
20/06:30pm 23.4 24.1 18.9 76 2.9 NE 13 20 7 11 - - 0.0
20/06:00pm 23.9 24.3 19.0 74 3.1 NE 15 24 8 13 - - 0.0
20/05:30pm 24.8 24.3 18.7 69 3.9 NNE 19 26 10 14 - - 0.0
20/05:00pm 25.8 25.0 18.0 62 4.9 NE 19 26 10 14 - - 0.0
20/04:30pm 26.5 25.6 17.8 58 5.5 NE 19 30 10 16 - - 0.0
20/04:00pm 27.7 26.9 17.2 52 6.6 NNE 17 24 9 13 - - 0.0
20/03:30pm 28.1 27.3 17.0 51 7.0 NNE 17 24 9 13 - - 0.0
20/03:00pm 28.4 27.3 17.3 51 7.0 NNE 19 30 10 16 - - 0.0
20/02:30pm 28.5 27.2 16.7 48 7.4 NNE 19 28 10 15 - - 0.0
20/02:00pm 28.9 28.1 17.1 49 7.4 NNE 17 28 9 15 - - 0.0
20/01:30pm 29.0 28.8 17.5 49 7.3 N 15 24 8 13 - - 0.0
20/01:00pm 29.5 29.5 14.1 39 9.3 NNW 7 11 4 6 - - 0.0
20/12:30pm 29.4 29.1 14.4 40 9.1 WSW 9 17 5 9 - - 0.0
20/12:00pm 28.5 29.5 15.4 45 8.0 S 4 11 2 6 - - 0.0
20/11:30am 27.9 28.9 16.8 50 6.9 N 7 11 4 6 - - 0.0
20/11:00am 27.4 28.7 17.6 55 6.2 NNW 7 13 4 7 - - 0.0
20/10:30am 26.3 27.6 17.1 57 5.7 N 6 9 3 5 - - 0.0
20/10:00am 25.7 27.6 17.6 61 5.1 SW 4 13 2 7 - - 0.0
20/09:30am 25.2 26.7 17.7 63 4.7 E 6 11 3 6 - - 0.0
20/09:00am 24.3 25.3 17.8 67 4.1 SSE 9 17 5 9 - - 0.6
20/08:30am 23.0 23.1 16.5 67 4.0 S 11 17 6 9 - - 0.6
20/08:00am 22.0 22.6 16.9 73 3.1 S 9 13 5 7 - - 0.6
20/07:30am 20.7 22.1 17.7 83 1.8 SSW 7 9 4 5 - - 0.6
20/07:00am 18.8 21.1 16.8 88 1.2 CALM 0 0 0 0 - - 0.6
20/06:30am 18.5 20.6 16.3 87 1.3 CALM 0 0 0 0 - - 0.6
20/06:00am 18.5 20.5 16.1 86 1.4 CALM 0 0 0 0 - - 0.6
20/05:30am 18.8 19.3 16.6 87 1.3 S 9 11 5 6 - - 0.6
20/05:00am 18.8 19.7 16.6 87 1.3 S 7 9 4 5 - - 0.6
20/04:30am 19.0 19.9 16.6 86 1.4 S 7 9 4 5 - - 0.6
20/04:00am 18.9 20.3 16.5 86 1.4 SSW 4 7 2 4 - - 0.6
20/03:30am 19.1 20.6 16.7 86 1.4 S 4 7 2 4 - - 0.6
20/03:00am 19.2 21.5 16.8 86 1.4 CALM 0 0 0 0 - - 0.6
20/02:30am 19.4 21.0 17.0 86 1.5 WSW 4 9 2 5 - - 0.6
20/02:00am 19.5 21.9 16.9 85 1.6 CALM 0 0 0 0 - - 0.6
20/01:30am 19.7 22.1 16.9 84 1.7 CALM 0 0 0 0 - - 0.6
20/01:00am 19.8 20.6 17.2 85 1.6 S 9 13 5 7 - - 0.6
20/12:30am 20.1 22.6 17.3 84 1.7 CALM 0 0 0 0 - - 0.6
20/12:00am 20.3 21.7 17.3 83 1.8 S 6 11 3 6 - - 0.6
 
Date/Time
EST
Temp
°C
App
Temp
°C
Dew
Point
°C
Rel
Hum
%
Delta-T
°C
Wind Press
QNH
hPa
Press
MSL
hPa
Rain since
9am
mm
Dir  Spd
km/h
Gust
km/h
Spd
kts
Gust
kts
19/11:30pm 20.5 21.9 17.7 84 1.7 S 7 9 4 5 - - 0.6
19/11:00pm 20.7 22.4 18.1 85 1.6 S 6 7 3 4 - - 0.6
19/10:30pm 21.0 23.6 18.4 85 1.6 SE 2 7 1 4 - - 0.6
19/10:00pm 20.7 23.2 18.1 85 1.6 NNE 2 7 1 4 - - 0.6
19/09:30pm 20.5 22.5 17.9 85 1.6 NE 4 7 2 4 - - 0.6
19/09:00pm 20.9 23.7 17.9 83 1.9 CALM 0 6 0 3 - - 0.6
19/08:30pm 21.1 22.9 18.3 84 1.7 ENE 6 11 3 6 - - 0.6
19/08:00pm 21.1 22.6 18.1 83 1.9 NE 7 11 4 6 - - 0.6
19/07:30pm 21.4 23.2 18.2 82 2.0 NW 6 9 3 5 - - 0.6
19/07:00pm 21.4 23.8 18.0 81 2.1 N 2 13 1 7 - - 0.6
19/06:30pm 21.7 24.6 18.1 80 2.2 CALM 0 6 0 3 - - 0.6
19/06:00pm 21.8 24.6 18.0 79 2.4 CALM 0 0 0 0 - - 0.6
19/05:30pm 21.9 23.6 18.1 79 2.4 N 6 7 3 4 - - 0.6
19/05:00pm 22.1 24.9 17.9 77 2.6 CALM 0 0 0 0 - - 0.6
19/04:30pm 22.4 23.4 18.6 79 2.4 NE 11 19 6 10 - - 0.6
19/04:00pm 22.5 23.3 18.1 76 2.7 ENE 11 15 6 8 - - 0.6
19/03:30pm 22.9 23.9 17.8 73 3.2 E 9 13 5 7 - - 0.6
19/03:00pm 23.2 24.4 17.4 70 3.6 ENE 7 11 4 6 - - 0.4
19/02:30pm 23.0 24.7 18.1 74 3.1 ESE 6 11 3 6 - - 0.4
19/02:00pm 23.0 24.1 17.2 70 3.6 E 7 11 4 6 - - 0.2
19/01:30pm 23.2 24.5 17.6 71 3.5 E 7 11 4 6 - - 0.0
19/01:00pm 23.7 24.3 16.7 65 4.3 E 9 13 5 7 - - 0.0
19/12:30pm 24.3 24.2 16.0 60 5.0 E 11 17 6 9 - - 0.0
19/12:00pm 24.9 24.7 15.8 57 5.5 ESE 11 17 6 9 - - 0.0
19/11:30am 25.1 24.9 15.7 56 5.7 E 11 20 6 11 - - 0.0
19/11:00am 25.1 24.8 15.4 55 5.9 E 11 20 6 11 - - 0.0
19/10:30am 25.3 24.7 15.6 55 5.9 ESE 13 22 7 12 - - 0.0
19/10:00am 24.7 23.7 15.6 57 5.5 E 15 24 8 13 - - 0.0
19/09:30am 23.7 22.6 15.2 59 5.1 ESE 15 22 8 12 - - 0.0
19/09:00am 23.2 22.1 15.3 61 4.7 SE 15 20 8 11 - - 0.0
19/08:30am 23.2 22.2 15.5 62 4.6 ESE 15 22 8 12 - - 0.0
19/08:00am 22.4 21.3 15.3 64 4.2 SE 15 24 8 13 - - 0.0
19/07:30am 21.9 20.8 15.3 66 3.9 SE 15 22 8 12 - - 0.0
19/07:00am 21.5 20.8 15.3 68 3.7 SE 13 20 7 11 - - 0.0
19/06:30am 21.1 20.8 15.4 70 3.4 SE 11 15 6 8 - - 0.0
19/06:00am 21.0 20.7 15.5 71 3.3 SE 11 15 6 8 - - 0.0
19/05:30am 21.0 21.2 15.8 72 3.1 ESE 9 13 5 7 - - 0.0
19/05:00am 21.0 20.9 16.0 73 3.0 SE 11 17 6 9 - - 0.0
19/04:30am 20.9 21.8 16.1 74 2.9 ESE 6 7 3 4 - - 0.0
19/04:00am 20.9 21.7 15.9 73 3.0 ESE 6 9 3 5 - - 0.0
19/03:30am 21.1 21.7 15.9 72 3.1 ESE 7 11 4 6 - - 0.0
19/03:00am 21.3 21.9 15.8 71 3.3 SE 7 13 4 7 - - 0.0
19/02:30am 21.5 22.2 16.0 71 3.3 ESE 7 13 4 7 - - 0.0
19/02:00am 21.6 21.9 16.1 71 3.3 ESE 9 15 5 8 - - 0.0
19/01:30am 21.6 21.9 16.1 71 3.3 SE 9 13 5 7 - - 0.0
19/01:00am 21.7 22.6 16.2 71 3.3 SE 6 9 3 5 - - 0.0
19/12:30am 21.9 22.8 16.2 70 3.4 SE 6 9 3 5 - - 0.0
19/12:00am 22.1 22.9 16.4 70 3.5 SE 7 13 4 7 - - 0.0
 
Date/Time
EST
Temp
°C
App
Temp
°C
Dew
Point
°C
Rel
Hum
%
Delta-T
°C
Wind Press
QNH
hPa
Press
MSL
hPa
Rain since
9am
mm
Dir  Spd
km/h
Gust
km/h
Spd
kts
Gust
kts
18/11:30pm 22.2 22.7 16.5 70 3.5 ESE 9 15 5 8 - - 0.0
18/11:00pm 22.1 22.2 16.6 71 3.3 ESE 11 17 6 9 - - 0.0
18/10:30pm 21.9 22.4 16.6 72 3.2 ESE 9 13 5 7 - - 0.0

Other Formats:

Comma delimited format used in spreadsheet applications
http://www.bom.gov.au/fwo/IDQ60801/IDQ60801.95295.axf

JavaScript Object Notation format (JSON) in row-major order
http://www.bom.gov.au/fwo/IDQ60801/IDQ60801.95295.json